sensor_id;sensor_type;location;lat;lon;timestamp;pressure;altitude;pressure_sealevel;temperature;humidity
68226;BME280;55045;49.410;11.030;2022-08-21T00:02:50;98177.97;;;16.26;100.00
68226;BME280;55045;49.410;11.030;2022-08-21T00:05:54;98177.97;;;16.13;100.00
68226;BME280;55045;49.410;11.030;2022-08-21T00:09:00;98171.34;;;16.46;100.00
68226;BME280;55045;49.410;11.030;2022-08-21T00:12:08;98158.06;;;16.23;100.00
68226;BME280;55045;49.410;11.030;2022-08-21T00:15:14;98168.50;;;17.20;100.00
68226;BME280;55045;49.410;11.030;2022-08-21T00:18:18;98154.75;;;17.06;100.00
68226;BME280;55045;49.410;11.030;2022-08-21T00:21:22;98129.38;;;15.72;100.00
68226;BME280;55045;49.410;11.030;2022-08-21T00:24:27;98148.84;;;15.68;100.00
68226;BME280;55045;49.410;11.030;2022-08-21T00:27:30;98151.88;;;15.88;100.00
68226;BME280;55045;49.410;11.030;2022-08-21T00:30:33;98149.25;;;15.88;100.00
68226;BME280;55045;49.410;11.030;2022-08-21T00:33:37;98147.59;;;15.74;100.00
68226;BME280;55045;49.410;11.030;2022-08-21T00:36:41;98158.69;;;15.65;100.00
68226;BME280;55045;49.410;11.030;2022-08-21T00:39:46;98147.44;;;16.01;100.00
68226;BME280;55045;49.410;11.030;2022-08-21T00:42:50;98146.94;;;15.57;100.00
68226;BME280;55045;49.410;11.030;2022-08-21T00:45:55;98162.25;;;15.64;100.00
68226;BME280;55045;49.410;11.030;2022-08-21T00:48:59;98167.03;;;15.70;100.00
68226;BME280;55045;49.410;11.030;2022-08-21T00:52:03;98167.97;;;16.07;100.00
68226;BME280;55045;49.410;11.030;2022-08-21T00:55:11;98159.69;;;15.62;100.00
68226;BME280;55045;49.410;11.030;2022-08-21T00:58:15;98164.50;;;15.43;100.00
68226;BME280;55045;49.410;11.030;2022-08-21T01:01:22;98104.91;;;15.73;100.00
68226;BME280;55045;49.410;11.030;2022-08-21T01:04:26;98152.63;;;15.64;100.00
68226;BME280;55045;49.410;11.030;2022-08-21T01:07:29;98141.16;;;15.52;100.00
68226;BME280;55045;49.410;11.030;2022-08-21T01:10:35;98151.72;;;15.25;100.00
68226;BME280;55045;49.410;11.030;2022-08-21T01:13:39;98162.56;;;15.32;100.00
68226;BME280;55045;49.410;11.030;2022-08-21T01:16:50;98162.69;;;15.31;100.00
68226;BME280;55045;49.410;11.030;2022-08-21T01:19:57;98160.59;;;15.36;100.00
68226;BME280;55045;49.410;11.030;2022-08-21T01:23:04;98164.03;;;15.23;100.00
68226;BME280;55045;49.410;11.030;2022-08-21T01:26:08;98164.75;;;15.13;100.00
68226;BME280;55045;49.410;11.030;2022-08-21T01:29:15;98166.22;;;15.17;100.00
68226;BME280;55045;49.410;11.030;2022-08-21T01:32:19;98175.19;;;15.13;100.00
68226;BME280;55045;49.410;11.030;2022-08-21T01:35:23;98174.53;;;15.09;100.00
68226;BME280;55045;49.410;11.030;2022-08-21T01:38:28;98158.44;;;16.06;100.00
68226;BME280;55045;49.410;11.030;2022-08-21T01:41:32;98159.22;;;15.17;100.00
68226;BME280;55045;49.410;11.030;2022-08-21T01:44:35;98169.28;;;15.23;100.00
68226;BME280;55045;49.410;11.030;2022-08-21T01:47:39;98164.81;;;15.11;100.00
68226;BME280;55045;49.410;11.030;2022-08-21T01:50:42;98164.69;;;16.03;100.00
68226;BME280;55045;49.410;11.030;2022-08-21T01:53:47;98151.59;;;15.14;100.00
68226;BME280;55045;49.410;11.030;2022-08-21T01:56:52;98157.31;;;15.19;100.00
68226;BME280;55045;49.410;11.030;2022-08-21T01:59:56;98157.66;;;15.15;100.00
68226;BME280;55045;49.410;11.030;2022-08-21T02:03:00;98153.44;;;16.39;100.00
68226;BME280;55045;49.410;11.030;2022-08-21T02:06:04;98147.47;;;15.10;100.00
68226;BME280;55045;49.410;11.030;2022-08-21T02:09:11;98150.31;;;15.20;100.00
68226;BME280;55045;49.410;11.030;2022-08-21T02:12:15;98158.09;;;14.82;100.00
68226;BME280;55045;49.410;11.030;2022-08-21T02:15:18;98152.66;;;14.85;100.00
68226;BME280;55045;49.410;11.030;2022-08-21T02:18:22;98155.28;;;16.13;100.00
68226;BME280;55045;49.410;11.030;2022-08-21T02:21:25;98129.56;;;16.07;100.00
68226;BME280;55045;49.410;11.030;2022-08-21T02:24:30;98135.25;;;16.62;100.00
68226;BME280;55045;49.410;11.030;2022-08-21T02:27:41;98130.59;;;15.28;100.00
68226;BME280;55045;49.410;11.030;2022-08-21T02:30:47;98140.41;;;15.12;100.00
68226;BME280;55045;49.410;11.030;2022-08-21T02:33:50;98129.56;;;15.44;100.00
68226;BME280;55045;49.410;11.030;2022-08-21T02:36:54;98137.75;;;14.99;100.00
68226;BME280;55045;49.410;11.030;2022-08-21T02:40:02;98160.41;;;14.99;100.00
68226;BME280;55045;49.410;11.030;2022-08-21T02:43:07;98159.66;;;15.49;100.00
68226;BME280;55045;49.410;11.030;2022-08-21T02:46:14;98153.53;;;15.11;100.00
68226;BME280;55045;49.410;11.030;2022-08-21T02:49:18;98156.34;;;14.95;100.00
68226;BME280;55045;49.410;11.030;2022-08-21T02:52:21;98150.09;;;16.37;100.00
68226;BME280;55045;49.410;11.030;2022-08-21T02:55:30;98151.00;;;14.96;100.00
68226;BME280;55045;49.410;11.030;2022-08-21T02:58:36;98154.13;;;14.89;100.00
68226;BME280;55045;49.410;11.030;2022-08-21T03:01:40;98154.84;;;14.91;100.00
68226;BME280;55045;49.410;11.030;2022-08-21T03:04:44;98154.09;;;15.28;100.00
68226;BME280;55045;49.410;11.030;2022-08-21T03:07:48;98145.84;;;14.55;100.00
68226;BME280;55045;49.410;11.030;2022-08-21T03:10:53;98145.06;;;14.67;100.00
68226;BME280;55045;49.410;11.030;2022-08-21T03:13:56;98158.59;;;14.60;100.00
68226;BME280;55045;49.410;11.030;2022-08-21T03:16:59;98152.00;;;14.54;100.00
68226;BME280;55045;49.410;11.030;2022-08-21T03:20:04;98151.91;;;14.56;100.00
68226;BME280;55045;49.410;11.030;2022-08-21T03:23:09;98152.84;;;14.55;100.00
68226;BME280;55045;49.410;11.030;2022-08-21T03:26:16;98160.28;;;14.61;100.00
68226;BME280;55045;49.410;11.030;2022-08-21T03:29:20;98156.97;;;16.02;100.00
68226;BME280;55045;49.410;11.030;2022-08-21T03:34:28;98164.66;;;15.14;100.00
68226;BME280;55045;49.410;11.030;2022-08-21T03:37:31;98164.31;;;15.84;100.00
68226;BME280;55045;49.410;11.030;2022-08-21T03:40:35;98159.78;;;15.35;100.00
68226;BME280;55045;49.410;11.030;2022-08-21T03:43:38;98152.72;;;15.10;100.00
68226;BME280;55045;49.410;11.030;2022-08-21T03:46:42;98166.31;;;15.15;100.00
68226;BME280;55045;49.410;11.030;2022-08-21T03:49:46;98165.28;;;14.91;100.00
68226;BME280;55045;49.410;11.030;2022-08-21T03:52:49;98158.50;;;14.88;100.00
68226;BME280;55045;49.410;11.030;2022-08-21T03:55:53;98187.72;;;14.81;100.00
68226;BME280;55045;49.410;11.030;2022-08-21T03:58:57;98189.28;;;15.10;100.00
68226;BME280;55045;49.410;11.030;2022-08-21T04:02:04;98197.91;;;15.65;100.00
68226;BME280;55045;49.410;11.030;2022-08-21T04:05:10;98195.09;;;15.01;100.00
68226;BME280;55045;49.410;11.030;2022-08-21T04:08:15;98185.03;;;14.82;100.00
68226;BME280;55045;49.410;11.030;2022-08-21T04:11:30;98195.78;;;14.90;100.00
68226;BME280;55045;49.410;11.030;2022-08-21T04:14:33;98205.72;;;14.85;100.00
68226;BME280;55045;49.410;11.030;2022-08-21T04:17:36;98196.13;;;15.78;100.00
68226;BME280;55045;49.410;11.030;2022-08-21T04:20:42;98192.78;;;15.23;100.00
68226;BME280;55045;49.410;11.030;2022-08-21T04:23:53;98164.41;;;14.78;100.00
68226;BME280;55045;49.410;11.030;2022-08-21T04:26:58;98203.00;;;14.87;100.00
68226;BME280;55045;49.410;11.030;2022-08-21T04:30:02;98177.66;;;15.02;100.00
68226;BME280;55045;49.410;11.030;2022-08-21T04:33:08;98208.81;;;14.78;100.00
68226;BME280;55045;49.410;11.030;2022-08-21T04:36:15;58865.03;;;-143.47;100.00
68226;BME280;55045;49.410;11.030;2022-08-21T04:39:40;58865.03;;;-143.47;100.00
68226;BME280;55045;49.410;11.030;2022-08-21T04:42:45;58865.03;;;-143.47;100.00
68226;BME280;55045;49.410;11.030;2022-08-21T04:45:52;58865.03;;;-143.47;100.00
68226;BME280;55045;49.410;11.030;2022-08-21T04:48:56;58865.03;;;-143.47;100.00
68226;BME280;55045;49.410;11.030;2022-08-21T04:52:00;58865.03;;;-143.47;100.00
68226;BME280;55045;49.410;11.030;2022-08-21T04:55:06;58865.03;;;-143.47;100.00
68226;BME280;55045;49.410;11.030;2022-08-21T04:58:11;58865.03;;;-143.47;100.00
68226;BME280;55045;49.410;11.030;2022-08-21T05:01:20;58865.03;;;-143.47;100.00
68226;BME280;55045;49.410;11.030;2022-08-21T05:04:24;58865.03;;;-143.47;100.00
68226;BME280;55045;49.410;11.030;2022-08-21T05:07:31;58865.03;;;-143.47;100.00
68226;BME280;55045;49.410;11.030;2022-08-21T05:10:45;58865.03;;;-143.47;100.00
68226;BME280;55045;49.410;11.030;2022-08-21T05:13:49;58865.03;;;-143.47;100.00
68226;BME280;55045;49.410;11.030;2022-08-21T05:16:58;58865.03;;;-143.47;100.00
68226;BME280;55045;49.410;11.030;2022-08-21T05:20:03;58865.03;;;-143.47;100.00
68226;BME280;55045;49.410;11.030;2022-08-21T05:23:07;58865.03;;;-143.47;100.00
68226;BME280;55045;49.410;11.030;2022-08-21T05:26:12;58865.03;;;-143.47;100.00
68226;BME280;55045;49.410;11.030;2022-08-21T05:29:20;58865.03;;;-143.47;100.00
68226;BME280;55045;49.410;11.030;2022-08-21T05:32:24;58865.03;;;-143.47;100.00
68226;BME280;55045;49.410;11.030;2022-08-21T05:35:31;58865.03;;;-143.47;100.00
68226;BME280;55045;49.410;11.030;2022-08-21T05:38:35;58865.03;;;-143.47;100.00
68226;BME280;55045;49.410;11.030;2022-08-21T05:41:40;58865.03;;;-143.47;100.00
68226;BME280;55045;49.410;11.030;2022-08-21T05:44:45;58865.03;;;-143.47;100.00
68226;BME280;55045;49.410;11.030;2022-08-21T05:47:52;58865.03;;;-143.47;100.00
68226;BME280;55045;49.410;11.030;2022-08-21T05:50:56;58865.03;;;-143.47;100.00
68226;BME280;55045;49.410;11.030;2022-08-21T05:53:59;58865.03;;;-143.47;100.00
68226;BME280;55045;49.410;11.030;2022-08-21T05:57:07;58865.03;;;-143.47;100.00
68226;BME280;55045;49.410;11.030;2022-08-21T06:00:15;58865.03;;;-143.47;100.00
68226;BME280;55045;49.410;11.030;2022-08-21T06:03:22;58865.03;;;-143.47;100.00
68226;BME280;55045;49.410;11.030;2022-08-21T06:06:26;58865.03;;;-143.47;100.00
68226;BME280;55045;49.410;11.030;2022-08-21T06:09:30;58865.03;;;-143.47;100.00
68226;BME280;55045;49.410;11.030;2022-08-21T06:12:34;58865.03;;;-143.47;100.00
68226;BME280;55045;49.410;11.030;2022-08-21T06:15:42;58865.03;;;-143.47;100.00
68226;BME280;55045;49.410;11.030;2022-08-21T06:18:46;58865.03;;;-143.47;100.00
68226;BME280;55045;49.410;11.030;2022-08-21T06:22:02;58865.03;;;-143.47;100.00
68226;BME280;55045;49.410;11.030;2022-08-21T06:25:08;58865.03;;;-143.47;100.00
68226;BME280;55045;49.410;11.030;2022-08-21T06:28:17;58865.03;;;-143.47;100.00
68226;BME280;55045;49.410;11.030;2022-08-21T06:31:26;58865.03;;;-143.47;100.00
68226;BME280;55045;49.410;11.030;2022-08-21T06:34:30;58865.03;;;-143.47;100.00
68226;BME280;55045;49.410;11.030;2022-08-21T06:37:37;58865.03;;;-143.47;100.00
68226;BME280;55045;49.410;11.030;2022-08-21T06:40:55;98287.44;;;15.14;100.00
68226;BME280;55045;49.410;11.030;2022-08-21T06:43:59;98277.53;;;15.59;100.00
68226;BME280;55045;49.410;11.030;2022-08-21T06:47:02;98274.78;;;15.21;100.00
68226;BME280;55045;49.410;11.030;2022-08-21T06:50:07;98285.66;;;15.15;100.00
68226;BME280;55045;49.410;11.030;2022-08-21T06:53:15;98284.41;;;15.47;100.00
68226;BME280;55045;49.410;11.030;2022-08-21T06:56:19;98288.66;;;15.09;100.00
68226;BME280;55045;49.410;11.030;2022-08-21T06:59:23;98290.72;;;15.31;100.00
68226;BME280;55045;49.410;11.030;2022-08-21T07:02:26;98282.63;;;14.94;100.00
68226;BME280;55045;49.410;11.030;2022-08-21T07:05:32;98288.75;;;15.34;100.00
68226;BME280;55045;49.410;11.030;2022-08-21T07:08:37;98286.56;;;15.41;100.00
68226;BME280;55045;49.410;11.030;2022-08-21T07:11:43;98294.38;;;15.55;100.00
68226;BME280;55045;49.410;11.030;2022-08-21T07:14:48;98289.69;;;15.60;100.00
68226;BME280;55045;49.410;11.030;2022-08-21T07:17:52;98291.19;;;15.50;100.00
68226;BME280;55045;49.410;11.030;2022-08-21T07:20:55;98294.38;;;16.07;100.00
68226;BME280;55045;49.410;11.030;2022-08-21T07:23:59;98294.84;;;16.63;100.00
68226;BME280;55045;49.410;11.030;2022-08-21T07:27:09;98264.38;;;17.12;100.00
68226;BME280;55045;49.410;11.030;2022-08-21T07:30:22;98284.91;;;15.40;100.00
68226;BME280;55045;49.410;11.030;2022-08-21T07:33:34;98287.47;;;15.54;100.00
68226;BME280;55045;49.410;11.030;2022-08-21T07:36:37;98292.59;;;16.08;100.00
68226;BME280;55045;49.410;11.030;2022-08-21T07:39:41;58865.03;;;-143.47;100.00
68226;BME280;55045;49.410;11.030;2022-08-21T07:42:47;58865.03;;;-143.47;100.00
68226;BME280;55045;49.410;11.030;2022-08-21T07:45:52;58865.03;;;-143.47;100.00
68226;BME280;55045;49.410;11.030;2022-08-21T07:48:56;58865.03;;;-143.47;100.00
68226;BME280;55045;49.410;11.030;2022-08-21T07:52:00;58865.03;;;-143.47;100.00
68226;BME280;55045;49.410;11.030;2022-08-21T07:55:04;58865.03;;;-143.47;100.00
68226;BME280;55045;49.410;11.030;2022-08-21T07:58:09;58865.03;;;-143.47;100.00
68226;BME280;55045;49.410;11.030;2022-08-21T08:01:12;58865.03;;;-143.47;100.00
68226;BME280;55045;49.410;11.030;2022-08-21T08:04:16;58865.03;;;-143.47;100.00
68226;BME280;55045;49.410;11.030;2022-08-21T08:07:25;58865.03;;;-143.47;100.00
68226;BME280;55045;49.410;11.030;2022-08-21T08:10:29;58865.03;;;-143.47;100.00
68226;BME280;55045;49.410;11.030;2022-08-21T08:13:38;58865.03;;;-143.47;100.00
68226;BME280;55045;49.410;11.030;2022-08-21T08:16:41;58865.03;;;-143.47;100.00
68226;BME280;55045;49.410;11.030;2022-08-21T08:19:45;58865.03;;;-143.47;100.00
68226;BME280;55045;49.410;11.030;2022-08-21T08:22:50;58865.03;;;-143.47;100.00
68226;BME280;55045;49.410;11.030;2022-08-21T08:25:53;58865.03;;;-143.47;100.00
68226;BME280;55045;49.410;11.030;2022-08-21T08:28:58;58865.03;;;-143.47;100.00
68226;BME280;55045;49.410;11.030;2022-08-21T08:32:03;58865.03;;;-143.47;100.00
68226;BME280;55045;49.410;11.030;2022-08-21T08:35:07;58865.03;;;-143.47;100.00
68226;BME280;55045;49.410;11.030;2022-08-21T08:38:12;58865.03;;;-143.47;100.00
68226;BME280;55045;49.410;11.030;2022-08-21T08:41:35;98204.63;;;17.63;100.00
68226;BME280;55045;49.410;11.030;2022-08-21T08:44:40;98226.25;;;16.71;100.00
68226;BME280;55045;49.410;11.030;2022-08-21T08:47:47;98202.41;;;17.70;100.00
68226;BME280;55045;49.410;11.030;2022-08-21T08:50:54;98224.59;;;16.94;100.00
68226;BME280;55045;49.410;11.030;2022-08-21T08:54:01;98226.31;;;16.33;100.00
68226;BME280;55045;49.410;11.030;2022-08-21T08:57:10;98228.25;;;16.67;100.00
68226;BME280;55045;49.410;11.030;2022-08-21T09:00:20;98239.59;;;16.68;100.00
68226;BME280;55045;49.410;11.030;2022-08-21T09:03:24;98233.16;;;17.09;100.00
68226;BME280;55045;49.410;11.030;2022-08-21T09:06:44;98238.28;;;16.86;100.00
68226;BME280;55045;49.410;11.030;2022-08-21T09:10:03;98219.25;;;17.90;100.00
68226;BME280;55045;49.410;11.030;2022-08-21T09:13:14;98220.09;;;17.20;100.00
68226;BME280;55045;49.410;11.030;2022-08-21T09:16:29;58865.03;;;-143.47;100.00
68226;BME280;55045;49.410;11.030;2022-08-21T09:19:46;58865.03;;;-143.47;100.00
68226;BME280;55045;49.410;11.030;2022-08-21T09:23:03;58865.03;;;-143.47;100.00
68226;BME280;55045;49.410;11.030;2022-08-21T09:26:13;58865.03;;;-143.47;100.00
68226;BME280;55045;49.410;11.030;2022-08-21T09:29:21;58865.03;;;-143.47;100.00
68226;BME280;55045;49.410;11.030;2022-08-21T09:34:31;98203.53;;;18.34;100.00
68226;BME280;55045;49.410;11.030;2022-08-21T09:37:46;98186.88;;;18.79;100.00
68226;BME280;55045;49.410;11.030;2022-08-21T09:41:00;98188.38;;;18.04;100.00
68226;BME280;55045;49.410;11.030;2022-08-21T09:44:06;98184.78;;;18.05;100.00
68226;BME280;55045;49.410;11.030;2022-08-21T09:47:11;98170.63;;;18.85;100.00
68226;BME280;55045;49.410;11.030;2022-08-21T09:50:18;98152.97;;;17.99;100.00
68226;BME280;55045;49.410;11.030;2022-08-21T09:53:26;98161.94;;;18.62;100.00
68226;BME280;55045;49.410;11.030;2022-08-21T09:56:38;98164.94;;;19.12;100.00
68226;BME280;55045;49.410;11.030;2022-08-21T10:00:08;98164.31;;;19.08;100.00
68226;BME280;55045;49.410;11.030;2022-08-21T10:03:16;98144.63;;;18.82;100.00
68226;BME280;55045;49.410;11.030;2022-08-21T10:06:28;98145.38;;;19.25;100.00
68226;BME280;55045;49.410;11.030;2022-08-21T10:09:31;98127.19;;;18.58;100.00
68226;BME280;55045;49.410;11.030;2022-08-21T10:12:45;98137.47;;;18.61;100.00
68226;BME280;55045;49.410;11.030;2022-08-21T10:15:55;98142.91;;;18.92;100.00
68226;BME280;55045;49.410;11.030;2022-08-21T10:19:11;98141.94;;;18.93;100.00
68226;BME280;55045;49.410;11.030;2022-08-21T10:22:31;98138.13;;;19.39;100.00
68226;BME280;55045;49.410;11.030;2022-08-21T10:25:40;98134.84;;;19.25;100.00
68226;BME280;55045;49.410;11.030;2022-08-21T10:29:14;98127.91;;;19.87;100.00
68226;BME280;55045;49.410;11.030;2022-08-21T10:32:38;98131.44;;;19.76;100.00
68226;BME280;55045;49.410;11.030;2022-08-21T10:35:49;98124.97;;;20.21;100.00
68226;BME280;55045;49.410;11.030;2022-08-21T10:38:59;98123.69;;;20.46;100.00
68226;BME280;55045;49.410;11.030;2022-08-21T10:42:35;98096.25;;;20.58;100.00
68226;BME280;55045;49.410;11.030;2022-08-21T10:45:49;98111.25;;;20.67;100.00
68226;BME280;55045;49.410;11.030;2022-08-21T10:48:58;98093.63;;;20.77;100.00
68226;BME280;55045;49.410;11.030;2022-08-21T10:52:15;98097.22;;;20.66;100.00
68226;BME280;55045;49.410;11.030;2022-08-21T10:55:32;98110.66;;;20.44;100.00
68226;BME280;55045;49.410;11.030;2022-08-21T10:58:39;98093.47;;;20.69;100.00
68226;BME280;55045;49.410;11.030;2022-08-21T11:01:49;98038.56;;;20.55;100.00
68226;BME280;55045;49.410;11.030;2022-08-21T11:04:57;98069.47;;;20.82;100.00
68226;BME280;55045;49.410;11.030;2022-08-21T11:08:10;98069.75;;;21.08;100.00
68226;BME280;55045;49.410;11.030;2022-08-21T11:11:20;98074.03;;;22.12;100.00
68226;BME280;55045;49.410;11.030;2022-08-21T11:14:36;98074.94;;;21.93;100.00
68226;BME280;55045;49.410;11.030;2022-08-21T11:17:54;98064.41;;;21.83;100.00
68226;BME280;55045;49.410;11.030;2022-08-21T11:21:12;98069.13;;;21.90;100.00
68226;BME280;55045;49.410;11.030;2022-08-21T11:24:29;98051.25;;;21.74;100.00
68226;BME280;55045;49.410;11.030;2022-08-21T11:27:39;98056.81;;;21.14;100.00
68226;BME280;55045;49.410;11.030;2022-08-21T11:30:55;98057.09;;;21.21;100.00
68226;BME280;55045;49.410;11.030;2022-08-21T11:34:10;98045.31;;;21.99;100.00
68226;BME280;55045;49.410;11.030;2022-08-21T11:37:23;98051.81;;;22.32;100.00
68226;BME280;55045;49.410;11.030;2022-08-21T11:40:57;98048.59;;;22.11;100.00
68226;BME280;55045;49.410;11.030;2022-08-21T11:44:18;98047.03;;;22.36;100.00
68226;BME280;55045;49.410;11.030;2022-08-21T11:47:33;98036.72;;;22.42;100.00
68226;BME280;55045;49.410;11.030;2022-08-21T11:50:40;98038.34;;;22.26;100.00
68226;BME280;55045;49.410;11.030;2022-08-21T11:53:50;98036.78;;;22.33;100.00
68226;BME280;55045;49.410;11.030;2022-08-21T11:57:00;98032.53;;;22.76;100.00
68226;BME280;55045;49.410;11.030;2022-08-21T12:00:12;98031.91;;;22.38;100.00
68226;BME280;55045;49.410;11.030;2022-08-21T12:03:24;98015.06;;;22.39;100.00
68226;BME280;55045;49.410;11.030;2022-08-21T12:06:32;98022.06;;;22.03;98.14
68226;BME280;55045;49.410;11.030;2022-08-21T12:09:36;98021.22;;;22.65;100.00
68226;BME280;55045;49.410;11.030;2022-08-21T12:12:42;98006.28;;;23.18;100.00
68226;BME280;55045;49.410;11.030;2022-08-21T12:15:47;97981.09;;;22.88;100.00
68226;BME280;55045;49.410;11.030;2022-08-21T12:19:02;98006.91;;;22.50;100.00
68226;BME280;55045;49.410;11.030;2022-08-21T12:22:13;98000.63;;;22.69;96.79
68226;BME280;55045;49.410;11.030;2022-08-21T12:25:18;97998.13;;;22.50;95.20
68226;BME280;55045;49.410;11.030;2022-08-21T12:28:23;97997.63;;;22.28;93.97
68226;BME280;55045;49.410;11.030;2022-08-21T12:31:29;97993.94;;;22.83;87.94
68226;BME280;55045;49.410;11.030;2022-08-21T12:34:35;97993.13;;;23.00;95.80
68226;BME280;55045;49.410;11.030;2022-08-21T12:37:42;98000.03;;;23.27;82.91
68226;BME280;55045;49.410;11.030;2022-08-21T12:40:49;97997.78;;;23.66;80.15
68226;BME280;55045;49.410;11.030;2022-08-21T12:43:57;97989.34;;;22.67;86.37
68226;BME280;55045;49.410;11.030;2022-08-21T12:47:11;97959.53;;;22.57;83.59
68226;BME280;55045;49.410;11.030;2022-08-21T12:50:20;97990.34;;;22.84;80.74
68226;BME280;55045;49.410;11.030;2022-08-21T12:53:28;97973.84;;;23.16;84.62
68226;BME280;55045;49.410;11.030;2022-08-21T12:56:34;97987.69;;;23.36;86.53
68226;BME280;55045;49.410;11.030;2022-08-21T12:59:38;97985.75;;;23.46;90.88
68226;BME280;55045;49.410;11.030;2022-08-21T13:02:48;97987.50;;;24.05;85.85
68226;BME280;55045;49.410;11.030;2022-08-21T13:05:52;97980.25;;;23.39;86.49
68226;BME280;55045;49.410;11.030;2022-08-21T13:09:03;97965.47;;;23.20;83.71
68226;BME280;55045;49.410;11.030;2022-08-21T13:12:08;97974.53;;;23.18;82.72
68226;BME280;55045;49.410;11.030;2022-08-21T13:15:12;97980.88;;;23.59;82.70
68226;BME280;55045;49.410;11.030;2022-08-21T13:18:22;97950.19;;;23.40;80.79
68226;BME280;55045;49.410;11.030;2022-08-21T13:21:31;97983.28;;;23.78;73.48
68226;BME280;55045;49.410;11.030;2022-08-21T13:24:36;97975.22;;;23.20;78.98
68226;BME280;55045;49.410;11.030;2022-08-21T13:27:45;97961.38;;;23.00;80.92
68226;BME280;55045;49.410;11.030;2022-08-21T13:30:59;97973.44;;;23.03;84.76
68226;BME280;55045;49.410;11.030;2022-08-21T13:34:04;97970.63;;;24.06;83.22
68226;BME280;55045;49.410;11.030;2022-08-21T13:37:11;97962.50;;;22.97;84.36
68226;BME280;55045;49.410;11.030;2022-08-21T13:40:19;97965.19;;;23.32;87.45
68226;BME280;55045;49.410;11.030;2022-08-21T13:43:27;97963.03;;;23.69;84.53
68226;BME280;55045;49.410;11.030;2022-08-21T13:46:34;97953.78;;;24.40;82.77
68226;BME280;55045;49.410;11.030;2022-08-21T13:49:42;97959.53;;;24.03;87.52
68226;BME280;55045;49.410;11.030;2022-08-21T13:52:49;97938.25;;;23.36;86.07
68226;BME280;55045;49.410;11.030;2022-08-21T13:55:57;97948.19;;;23.08;94.69
68226;BME280;55045;49.410;11.030;2022-08-21T13:59:03;97964.28;;;22.89;99.15
68226;BME280;55045;49.410;11.030;2022-08-21T14:02:11;97939.41;;;22.82;99.79
68226;BME280;55045;49.410;11.030;2022-08-21T14:05:25;97952.91;;;23.22;93.75
68226;BME280;55045;49.410;11.030;2022-08-21T14:08:39;97960.19;;;23.20;95.80
68226;BME280;55045;49.410;11.030;2022-08-21T14:11:43;97955.47;;;23.40;100.00
68226;BME280;55045;49.410;11.030;2022-08-21T14:14:46;97966.41;;;23.88;87.95
68226;BME280;55045;49.410;11.030;2022-08-21T14:17:50;97962.53;;;23.32;91.51
68226;BME280;55045;49.410;11.030;2022-08-21T14:21:06;97942.25;;;23.91;88.56
68226;BME280;55045;49.410;11.030;2022-08-21T14:24:14;97946.34;;;23.69;91.97
68226;BME280;55045;49.410;11.030;2022-08-21T14:27:29;97936.94;;;23.91;84.24
68226;BME280;55045;49.410;11.030;2022-08-21T14:30:42;97927.03;;;23.84;84.96
68226;BME280;55045;49.410;11.030;2022-08-21T14:33:49;97911.06;;;23.60;80.49
68226;BME280;55045;49.410;11.030;2022-08-21T14:36:55;97939.88;;;23.63;87.15
68226;BME280;55045;49.410;11.030;2022-08-21T14:40:01;97935.56;;;23.70;82.26
68226;BME280;55045;49.410;11.030;2022-08-21T14:43:05;97934.25;;;23.66;86.16
68226;BME280;55045;49.410;11.030;2022-08-21T14:46:16;97937.28;;;23.88;79.55
68226;BME280;55045;49.410;11.030;2022-08-21T14:49:21;97928.34;;;23.89;78.38
68226;BME280;55045;49.410;11.030;2022-08-21T14:52:26;97921.06;;;23.82;76.52
68226;BME280;55045;49.410;11.030;2022-08-21T14:55:30;97873.41;;;24.07;76.69
68226;BME280;55045;49.410;11.030;2022-08-21T14:59:03;97923.44;;;24.02;82.19
68226;BME280;55045;49.410;11.030;2022-08-21T15:02:09;97888.97;;;23.94;78.55
68226;BME280;55045;49.410;11.030;2022-08-21T15:05:13;97924.34;;;23.76;72.68
68226;BME280;55045;49.410;11.030;2022-08-21T15:08:26;97920.28;;;23.56;74.71
68226;BME280;55045;49.410;11.030;2022-08-21T15:11:30;97916.41;;;23.76;75.51
68226;BME280;55045;49.410;11.030;2022-08-21T15:14:43;97903.53;;;23.90;75.10
68226;BME280;55045;49.410;11.030;2022-08-21T15:17:47;97908.50;;;24.01;73.49
68226;BME280;55045;49.410;11.030;2022-08-21T15:20:50;97905.22;;;24.23;73.39
68226;BME280;55045;49.410;11.030;2022-08-21T15:23:54;97898.59;;;24.03;66.91
68226;BME280;55045;49.410;11.030;2022-08-21T15:27:00;97896.41;;;23.90;65.22
68226;BME280;55045;49.410;11.030;2022-08-21T15:30:04;97900.88;;;23.81;62.83
68226;BME280;55045;49.410;11.030;2022-08-21T15:34:32;97887.81;;;24.04;65.02
68226;BME280;55045;49.410;11.030;2022-08-21T15:37:36;97888.00;;;24.03;63.87
68226;BME280;55045;49.410;11.030;2022-08-21T15:40:42;97880.06;;;24.03;66.84
68226;BME280;55045;49.410;11.030;2022-08-21T15:43:53;97847.75;;;23.91;74.17
68226;BME280;55045;49.410;11.030;2022-08-21T15:46:58;97868.78;;;24.09;67.31
68226;BME280;55045;49.410;11.030;2022-08-21T15:50:05;97866.13;;;23.93;71.47
68226;BME280;55045;49.410;11.030;2022-08-21T15:53:09;97868.13;;;24.31;65.93
68226;BME280;55045;49.410;11.030;2022-08-21T15:56:17;97855.84;;;23.73;66.83
68226;BME280;55045;49.410;11.030;2022-08-21T15:59:24;97866.81;;;24.03;59.37
68226;BME280;55045;49.410;11.030;2022-08-21T16:02:30;97856.03;;;23.96;59.95
68226;BME280;55045;49.410;11.030;2022-08-21T16:05:35;97840.28;;;23.62;58.66
68226;BME280;55045;49.410;11.030;2022-08-21T16:08:40;97855.50;;;23.76;66.52
68226;BME280;55045;49.410;11.030;2022-08-21T16:11:44;97857.50;;;23.82;62.27